Ashton, South Dakota
Current Conditions -  °F | °C
As of 1:53 AM on Wednesday 22 Oct 2014 (Local Time) from KABR Reporting Station
Clear Clear  
Wind Chill: 17°   Ceiling: Unl
Heat Index: 17°   Visibility: 10mi
Dew Point:   Wind: 22mph
Humidity: 46%   Direction: 170°S
Pressure: 29.83"   Gusts: 31mph
Location:  44.99°N, 98.5°W
Report Text: KABR 220653Z AUTO 17019G27KT 10SM CLR 17/05 A2983 RMK AO2 PK WND 17033/0611 SLP096 T01670050
Loading
Personal Weather Stations






























Interactive Weather Map
Tropical Storm Tracking
New forecast layout! Learn more

10-Day Weather Forecast

Advertisements
Track Severe Weather on mobile